Pagrindinis puslapis
METAR-TAF:

METAR-TAF

Oro uostai :

Sankt Moricas, Šveicarija

platuma: 46-32-03N, ilguma: 9-53-03E, Aukštis: 1707 m

Dabartinis oras

Ataskaita buvo paskelbta 15 minutes, ne 20:50 UTC
Vėjas 2 kt nuo kintamojo kryptimis
Temperatūra 1°C
Drėgmė 75%
Slėgis 1015 hPa
Matomumas 10 km arba daugiau
Su prošvaistėmis ne aukštis 6500 ft

METAR: LSZS 282050Z AUTO VRB02KT 9999 BKN065 01/M03 Q1015

Laikas: 22:05 (21:05 UTC)

Prognozė

Ataskaita buvo paskelbta 6 valandos ir 40 minutes, ne 14:25 UTC
Prognozė galioja nuo 28 metu 15 UTC su 28 metu 24 UTC
Vėjas 7 kt iš Vakarų/Šiaurės Vakarų
Matomumas 10 km arba daugiau
Išsisklaidę debesys ne aukštis 5500 ft

TAF: LSZS 281425Z 2815/2824 30007KT 9999 SCT055 TX09/2815Z

Orai ataskaitas ir orų prognozės (METAR, TAF).

turimą stotys yra geltonos ir raudonos taškus žemėlapyje.

Perkelti pele per norėdami pamatyti stoties vardą.

Tada spustelėkite, norėdami matyti oro stebėjimo ir prognozės.

Norėdami pakeisti žemėlapį: spustelėkite ant žalios mygtukų su juodo kryžiaus žemyn,; žalią mygtuką su brūkšneliu, jei norite nutolinti; arba žalių rodyklių gretimoms žemėlapius.


METAR-TAF: